메인 페이지
METAR-TAF:

METAR-TAF

공항 :

모빌, 앨라배마, 미국

위도: 30-41-18N, 경도: 088-14-44W, 고도: 66m

현재 날씨관측

예보는 17분 전, 00:56시(UTC)에 발표되었습니다.
3kt
온도 8°C
습도 81%
기압 1018 hPa
시정: 16.1km
맑음

METAR: KMOB 170056Z 36003KT 10SM CLR 08/05 A3007 RMK AO2 SLP184 T00830050

시각: 19:13 (01:13 UTC)

예보

예보는 1 시간 53분 전, 23:20시(UTC)에 발표되었습니다.
예보 대상 시간: 17일 00시부터 17일 24시까지 (UTC)
북서4kt
시정: 10km
고도 25000ft 상공 구름 조금
17일 1500시부터 (UTC)
북동4kt
시정: 10km
고도 25000ft 상공 구름 조금

TAF: KMOB 162320Z 1700/1724 32004KT P6SM FEW250 FM171500 05004KT P6SM FEW250

4,000개 이상의 공항 관측 자료 및 예보 (METAR 및 TAF 보고).

지도상에서 검색 가능한 기상관측소가 노란 점과 빨간 점으로 표시되어 있습니다.

기상관측소 명을 보려면 표시 위로 마우스를 이동하세요.

날씨 관측과 예보를 보려면 클릭하세요.

지도 변경 : 확대하려면 엑스 표시가 있는 녹색 버튼, 축소하려면 빼기 표시가 있는 녹색 버튼, 다음 페이지의 지도를 보려면 녹색 화살표를 클릭하세요.


METAR-TAF: